Time;durP1;ratioP1;P1;durP2;ratioP2;P2;SDS_P1;SDS_P2;PMS_P1;PMS_P2;Temp;Humidity;BMP_temperature;BMP_pressure;BME280_temperature;BME280_humidity;BME280_pressure;Samples;Min_cycle;Max_cycle;Signal;HPM_P1;HPM_P2
2023/09/02 00:01:26;;;;;;;11.70;7.07;;;25.60;53.70;;;;;;5038132;27;88648;-58
2023/09/02 00:03:54;;;;;;;8.73;6.07;;;25.60;53.70;;;;;;5038229;28;87991;-58
2023/09/02 00:06:23;;;;;;;10.17;6.57;;;25.60;53.70;;;;;;5037887;28;87459;-58
2023/09/02 00:08:52;;;;;;;8.67;5.97;;;25.60;53.70;;;;;;5038517;28;87831;-58
2023/09/02 00:11:21;;;;;;;11.20;6.47;;;25.60;53.80;;;;;;5038116;28;89873;-58
2023/09/02 00:13:49;;;;;;;8.50;5.97;;;25.50;53.70;;;;;;5037673;28;89142;-58
2023/09/02 00:16:17;;;;;;;10.13;6.37;;;25.60;53.80;;;;;;5038547;28;87448;-58
2023/09/02 00:18:46;;;;;;;13.07;6.70;;;25.50;53.80;;;;;;5036494;27;87570;-58
2023/09/02 00:21:14;;;;;;;10.90;7.17;;;25.60;53.80;;;;;;5040770;28;88516;-58
2023/09/02 00:23:45;;;;;;;8.80;5.90;;;25.50;53.80;;;;;;5041687;28;89086;-58
2023/09/02 00:26:15;;;;;;;11.13;6.93;;;25.50;53.80;;;;;;5041550;28;87343;-58
2023/09/02 00:28:43;;;;;;;9.80;6.47;;;25.50;53.90;;;;;;5040642;27;87670;-58
2023/09/02 00:31:11;;;;;;;9.23;6.43;;;25.50;53.80;;;;;;5041042;28;89419;-58
2023/09/02 00:33:40;;;;;;;11.17;6.97;;;25.50;53.90;;;;;;5040049;28;88202;-58
2023/09/02 00:36:08;;;;;;;8.70;5.70;;;25.50;53.80;;;;;;5040588;28;87365;-58
2023/09/02 00:38:36;;;;;;;10.43;6.50;;;25.50;53.80;;;;;;5041224;28;87485;-58
2023/09/02 00:41:06;;;;;;;8.17;6.27;;;25.50;54.50;;;;;;5041132;28;89269;-59
2023/09/02 00:43:35;;;;;;;13.47;5.63;;;25.50;53.80;;;;;;5040378;28;87998;-58
2023/09/02 00:46:04;;;;;;;11.13;6.40;;;25.50;53.80;;;;;;5040862;28;87290;-58
2023/09/02 00:48:33;;;;;;;9.87;6.07;;;25.50;53.80;;;;;;5041252;28;87464;-58
2023/09/02 00:51:01;;;;;;;7.73;5.73;;;25.50;53.80;;;;;;5040518;28;88587;-58
2023/09/02 00:53:29;;;;;;;9.67;6.07;;;25.50;53.80;;;;;;5040468;28;89026;-58
2023/09/02 00:55:57;;;;;;;11.13;6.10;;;25.50;53.80;;;;;;5040110;28;87321;-58
2023/09/02 00:58:25;;;;;;;10.47;6.63;;;25.50;53.80;;;;;;5040845;28;87636;-58
2023/09/02 01:00:56;;;;;;;8.10;5.67;;;25.50;53.80;;;;;;5039900;27;89647;-58
2023/09/02 01:03:24;;;;;;;10.07;6.27;;;25.50;53.80;;;;;;5043435;28;88180;-58
2023/09/02 01:05:52;;;;;;;8.50;5.37;;;25.50;53.80;;;;;;5043970;28;87220;-58
2023/09/02 01:08:20;;;;;;;9.67;6.73;;;25.50;53.80;;;;;;5043390;27;87950;-58
2023/09/02 01:10:48;;;;;;;11.10;7.03;;;25.50;53.70;;;;;;5043722;28;87534;-58
2023/09/02 01:13:17;;;;;;;9.10;6.53;;;25.50;53.70;;;;;;5043286;28;88507;-58
2023/09/02 01:15:45;;;;;;;9.37;6.67;;;25.50;53.70;;;;;;5043915;28;87210;-58
2023/09/02 01:18:15;;;;;;;9.73;5.93;;;25.50;53.70;;;;;;5043365;28;87536;-58
2023/09/02 01:20:55;;;;;;;8.73;6.03;;;25.50;53.70;;;;;;5043701;28;88518;-58
2023/09/02 01:23:33;;;;;;;12.93;6.87;;;25.50;53.70;;;;;;5043246;28;88909;-58
2023/09/02 01:26:15;;;;;;;14.37;6.87;;;25.50;53.70;;;;;;5043855;28;87501;-58
2023/09/02 01:28:45;;;;;;;9.33;5.97;;;25.50;53.70;;;;;;5043554;28;87610;-58
2023/09/02 01:31:13;;;;;;;11.83;6.87;;;25.50;53.70;;;;;;5044283;27;88745;-58
2023/09/02 01:33:41;;;;;;;12.93;6.77;;;25.50;53.70;;;;;;5043973;27;89229;-58
2023/09/02 01:36:12;;;;;;;11.37;6.60;;;25.40;53.70;;;;;;5043474;28;87322;-58
2023/09/02 01:38:41;;;;;;;11.00;6.63;;;25.50;53.70;;;;;;5042991;28;87672;-58
2023/09/02 01:41:09;;;;;;;10.10;6.10;;;25.50;53.70;;;;;;5043678;28;88235;-58
2023/09/02 01:43:37;;;;;;;10.37;7.30;;;25.40;53.70;;;;;;5042602;28;87498;-58
2023/09/02 01:46:07;;;;;;;13.17;6.47;;;25.40;53.70;;;;;;5043566;27;87291;-58
2023/09/02 01:48:35;;;;;;;12.70;6.87;;;25.40;53.70;;;;;;5043407;27;87778;-58
2023/09/02 01:51:04;;;;;;;10.93;5.47;;;25.40;53.70;;;;;;5042993;28;88522;-58
2023/09/02 01:53:32;;;;;;;8.83;5.83;;;25.40;53.70;;;;;;5043069;28;88001;-58
2023/09/02 01:56:00;;;;;;;11.10;7.13;;;25.40;53.70;;;;;;5042645;27;87614;-58
2023/09/02 01:58:28;;;;;;;9.47;6.33;;;25.40;53.70;;;;;;5043387;28;87692;-58
2023/09/02 02:00:56;;;;;;;8.43;6.23;;;25.40;53.60;;;;;;5042608;28;88527;-58
2023/09/02 02:03:28;;;;;;;13.50;6.67;;;25.40;53.70;;;;;;5042844;28;87600;-58
2023/09/02 02:05:56;;;;;;;8.53;6.17;;;25.40;53.70;;;;;;5043231;28;87282;-58
2023/09/02 02:08:29;;;;;;;11.03;6.83;;;25.40;53.70;;;;;;5042876;28;87465;-58
2023/09/02 02:10:58;;;;;;;9.03;6.10;;;25.40;53.70;;;;;;5042866;27;88606;-59
2023/09/02 02:13:26;;;;;;;10.33;6.17;;;25.40;53.70;;;;;;5042719;27;87885;-58
2023/09/02 02:15:54;;;;;;;12.50;6.43;;;25.40;53.70;;;;;;5043034;28;87360;-58
2023/09/02 02:18:22;;;;;;;11.33;6.70;;;25.40;53.70;;;;;;5043024;28;87280;-58
2023/09/02 02:20:57;;;;;;;7.67;5.53;;;25.30;53.60;;;;;;5042508;28;88530;-58
2023/09/02 02:23:25;;;;;;;14.03;6.40;;;25.30;53.70;;;;;;5042201;28;87995;-58
2023/09/02 02:25:53;;;;;;;11.50;6.47;;;25.40;53.70;;;;;;5043266;28;87586;-58
2023/09/02 02:28:22;;;;;;;7.70;5.10;;;25.40;53.70;;;;;;5043264;28;87635;-58
2023/09/02 02:30:50;;;;;;;8.47;5.53;;;25.30;53.60;;;;;;5042932;28;88348;-58
2023/09/02 02:33:18;;;;;;;8.30;5.77;;;25.30;53.60;;;;;;5042447;28;88012;-58
2023/09/02 02:35:46;;;;;;;10.13;6.30;;;25.40;53.70;;;;;;5043116;27;87220;-58
2023/09/02 02:38:16;;;;;;;7.97;5.07;;;25.30;53.60;;;;;;5042252;28;87660;-58
2023/09/02 02:40:44;;;;;;;8.33;5.80;;;25.30;53.70;;;;;;5042380;28;88548;-58
2023/09/02 02:43:12;;;;;;;7.63;4.97;;;25.40;53.70;;;;;;5041782;27;88180;-58
2023/09/02 02:45:42;;;;;;;5.07;4.43;;;25.30;53.70;;;;;;5041978;28;87465;-58
2023/09/02 02:48:15;;;;;;;7.93;5.77;;;25.40;53.70;;;;;;5042257;28;87596;-58
2023/09/02 02:50:44;;;;;;;8.97;5.57;;;25.40;53.80;;;;;;5042198;28;89633;-58
2023/09/02 02:53:12;;;;;;;8.30;6.07;;;25.30;53.70;;;;;;5042836;28;87979;-58
2023/09/02 02:55:42;;;;;;;7.27;4.80;;;25.40;53.80;;;;;;5042887;28;87509;-58
2023/09/02 02:58:12;;;;;;;6.63;4.73;;;25.30;53.80;;;;;;5043143;28;87385;-59
2023/09/02 03:00:40;;;;;;;9.80;5.97;;;25.30;53.80;;;;;;5042620;28;89569;-58
2023/09/02 03:03:09;;;;;;;11.83;7.17;;;25.40;53.80;;;;;;5042380;28;88003;-59
2023/09/02 03:05:37;;;;;;;8.80;5.63;;;25.30;53.70;;;;;;5042544;28;87168;-58
2023/09/02 03:08:06;;;;;;;6.40;4.60;;;25.30;53.70;;;;;;5042845;27;87655;-58
2023/09/02 03:10:35;;;;;;;8.67;5.57;;;25.40;53.80;;;;;;5042481;28;89981;-58
2023/09/02 03:13:05;;;;;;;10.27;5.70;;;25.30;53.70;;;;;;5041601;28;88378;-58
2023/09/02 03:15:33;;;;;;;10.27;5.87;;;25.40;53.80;;;;;;5041963;27;87216;-58
2023/09/02 03:18:02;;;;;;;7.37;5.57;;;25.40;53.80;;;;;;5041855;27;87417;-58
2023/09/02 03:20:31;;;;;;;7.37;4.63;;;25.30;53.70;;;;;;5041825;28;88563;-58
2023/09/02 03:22:59;;;;;;;6.07;4.83;;;25.40;53.80;;;;;;5042089;27;89044;-58
2023/09/02 03:25:30;;;;;;;8.83;5.87;;;25.30;53.80;;;;;;5041280;27;87442;-58
2023/09/02 03:27:58;;;;;;;9.40;5.93;;;25.30;53.80;;;;;;5042414;27;87564;-58
2023/09/02 03:30:28;;;;;;;8.73;5.23;;;25.30;54.40;;;;;;5042365;28;88679;-58
2023/09/02 03:32:56;;;;;;;7.67;5.67;;;25.30;53.80;;;;;;5042015;28;88040;-58
2023/09/02 03:35:24;;;;;;;9.17;5.67;;;25.30;53.80;;;;;;5041757;27;87343;-58
2023/09/02 03:37:52;;;;;;;6.70;3.97;;;25.30;53.70;;;;;;5041563;28;87644;-58
2023/09/02 03:40:21;;;;;;;7.47;4.63;;;25.30;53.80;;;;;;5041073;28;88556;-58
2023/09/02 03:42:49;;;;;;;8.73;5.83;;;25.30;53.80;;;;;;5041019;28;89008;-58
2023/09/02 03:45:17;;;;;;;7.60;4.43;;;25.30;53.80;;;;;;5042500;28;87346;-58
2023/09/02 03:47:47;;;;;;;10.37;5.30;;;25.30;53.80;;;;;;5041450;28;87656;-58
2023/09/02 03:50:23;;;;;;;8.50;5.33;;;25.30;54.40;;;;;;5041335;27;88572;-58
2023/09/02 03:52:51;;;;;;;7.23;5.00;;;25.40;53.90;;;;;;5041395;28;87986;-58
2023/09/02 03:55:19;;;;;;;7.80;5.37;;;25.30;53.80;;;;;;5041257;28;87371;-58
2023/09/02 03:57:47;;;;;;;9.37;5.37;;;25.20;53.80;;;;;;5041580;28;87668;-58
2023/09/02 04:00:17;;;;;;;8.23;5.17;;;25.30;53.80;;;;;;5041809;28;87435;-58
2023/09/02 04:02:45;;;;;;;10.17;5.10;;;25.20;53.80;;;;;;5041307;27;88025;-58
2023/09/02 04:05:14;;;;;;;7.97;5.00;;;25.30;53.80;;;;;;5040930;27;87406;-58
2023/09/02 04:07:42;;;;;;;8.07;4.90;;;25.30;53.90;;;;;;5041950;28;87449;-58
2023/09/02 04:10:10;;;;;;;8.13;5.53;;;25.30;53.90;;;;;;5041400;28;88661;-58
2023/09/02 04:12:39;;;;;;;7.27;4.90;;;25.20;53.80;;;;;;5041566;28;87794;-58
2023/09/02 04:15:08;;;;;;;7.17;4.27;;;25.20;54.40;;;;;;5041188;28;87265;-58
2023/09/02 04:17:36;;;;;;;5.70;3.43;;;25.20;53.90;;;;;;5040627;28;87430;-58
2023/09/02 04:20:05;;;;;;;4.70;3.70;;;25.20;53.90;;;;;;5040394;28;89712;-58
2023/09/02 04:22:35;;;;;;;6.83;3.67;;;25.20;53.90;;;;;;5040673;28;88001;-58
2023/09/02 04:25:03;;;;;;;7.43;3.80;;;25.20;53.90;;;;;;5041156;28;87304;-58
2023/09/02 04:27:31;;;;;;;5.70;4.30;;;25.20;54.60;;;;;;5040328;28;87521;-58
2023/09/02 04:29:59;;;;;;;8.27;4.43;;;25.20;53.90;;;;;;5041292;28;89724;-58
2023/09/02 04:32:27;;;;;;;5.00;3.70;;;25.20;53.90;;;;;;5041132;28;88966;-58
2023/09/02 04:34:55;;;;;;;5.47;3.40;;;25.20;53.90;;;;;;5040903;27;87379;-58
2023/09/02 04:37:24;;;;;;;7.13;4.20;;;25.20;53.90;;;;;;5043569;27;87510;-58
2023/09/02 04:39:53;;;;;;;7.60;4.23;;;25.20;53.90;;;;;;5044249;28;88534;-58
2023/09/02 04:42:21;;;;;;;5.10;4.10;;;25.20;53.90;;;;;;5043623;28;89102;-58
2023/09/02 04:44:51;;;;;;;7.27;3.67;;;25.20;53.90;;;;;;5044168;27;87430;-59
2023/09/02 04:47:19;;;;;;;9.23;4.13;;;25.20;53.90;;;;;;5044106;28;87734;-58
2023/09/02 04:49:47;;;;;;;6.33;4.10;;;25.20;53.90;;;;;;5044280;27;88184;-58
2023/09/02 04:52:15;;;;;;;8.43;4.27;;;25.20;54.60;;;;;;5043803;28;88985;-58
2023/09/02 04:54:45;;;;;;;4.87;4.10;;;25.20;53.90;;;;;;5043846;28;87524;-58
2023/09/02 04:57:14;;;;;;;5.57;3.87;;;25.30;54.00;;;;;;5044711;28;87656;-58
2023/09/02 04:59:46;;;;;;;4.70;3.90;;;25.20;54.00;;;;;;5044548;27;89787;-58
2023/09/02 05:02:14;;;;;;;4.70;3.33;;;25.20;54.00;;;;;;5043936;28;88779;-58
2023/09/02 05:04:42;;;;;;;5.30;2.97;;;25.20;54.00;;;;;;5043846;28;87328;-58
2023/09/02 05:07:10;;;;;;;5.63;3.20;;;25.20;54.10;;;;;;5044219;28;87533;-58
2023/09/02 05:09:38;;;;;;;4.27;3.40;;;25.20;54.10;;;;;;5043384;28;88518;-58
2023/09/02 05:12:06;;;;;;;4.23;3.40;;;25.20;54.10;;;;;;5044037;28;88969;-58
2023/09/02 05:14:36;;;;;;;4.97;3.57;;;25.10;54.10;;;;;;5043679;28;87535;-58
2023/09/02 05:17:04;;;;;;;4.03;3.37;;;25.20;54.20;;;;;;5043238;27;87663;-58
2023/09/02 05:19:32;;;;;;;6.37;3.77;;;25.20;54.20;;;;;;5043797;28;89738;-58
2023/09/02 05:22:00;;;;;;;5.03;3.03;;;25.10;54.10;;;;;;5043944;28;89112;-58
2023/09/02 05:24:28;;;;;;;5.50;3.13;;;25.10;54.10;;;;;;5044347;28;87398;-58
2023/09/02 05:26:56;;;;;;;4.80;3.50;;;25.10;54.10;;;;;;5043375;28;87564;-58
2023/09/02 05:29:24;;;;;;;4.07;2.80;;;25.10;54.20;;;;;;5044023;28;87536;-58
2023/09/02 05:31:54;;;;;;;7.53;3.90;;;25.10;54.10;;;;;;5042777;28;88062;-58
2023/09/02 05:34:22;;;;;;;3.53;3.13;;;25.20;54.20;;;;;;5043517;27;87329;-58
2023/09/02 05:36:50;;;;;;;3.17;2.70;;;25.10;54.10;;;;;;5044027;28;87334;-58
2023/09/02 05:39:18;;;;;;;4.47;2.90;;;25.10;54.10;;;;;;5043665;28;88684;-58
2023/09/02 05:41:46;;;;;;;4.50;3.23;;;25.10;54.10;;;;;;5042737;28;87881;-58
2023/09/02 05:44:14;;;;;;;5.10;3.23;;;25.10;54.10;;;;;;5042826;28;87509;-58
2023/09/02 05:46:42;;;;;;;4.70;3.20;;;25.10;54.10;;;;;;5043617;27;87590;-58
2023/09/02 05:49:12;;;;;;;3.80;3.13;;;25.10;54.10;;;;;;5043490;28;87671;-58
2023/09/02 05:51:40;;;;;;;5.87;2.63;;;25.10;54.10;;;;;;5043404;28;88977;-58
2023/09/02 05:54:09;;;;;;;5.33;3.07;;;25.10;54.10;;;;;;5043207;28;87451;-58
2023/09/02 05:56:37;;;;;;;4.63;2.87;;;25.10;54.10;;;;;;5042995;28;87332;-58
2023/09/02 05:59:05;;;;;;;4.23;3.13;;;25.10;54.70;;;;;;5042857;28;88563;-58
2023/09/02 06:01:33;;;;;;;2.70;2.50;;;25.10;54.10;;;;;;5043258;28;89070;-58
2023/09/02 06:04:02;;;;;;;4.80;2.73;;;25.10;54.10;;;;;;5043253;28;87686;-58
2023/09/02 06:06:31;;;;;;;4.33;2.77;;;25.10;54.10;;;;;;5043588;27;87677;-58
2023/09/02 06:09:01;;;;;;;3.67;2.63;;;25.10;54.10;;;;;;5043534;28;89756;-59
2023/09/02 06:11:30;;;;;;;3.73;2.77;;;25.10;54.20;;;;;;5042312;28;89065;-58
2023/09/02 06:13:58;;;;;;;3.70;3.00;;;25.10;54.10;;;;;;5042637;28;87393;-58
2023/09/02 06:16:26;;;;;;;2.73;2.33;;;25.10;54.10;;;;;;5043316;28;87526;-58
2023/09/02 06:18:54;;;;;;;3.93;2.63;;;25.10;54.10;;;;;;5043330;28;88549;-58
2023/09/02 06:21:22;;;;;;;4.50;3.00;;;25.20;54.10;;;;;;5042663;28;87520;-58
2023/09/02 06:23:52;;;;;;;4.67;2.70;;;25.10;54.10;;;;;;5042393;28;87447;-58
2023/09/02 06:26:20;;;;;;;3.10;2.43;;;25.20;54.10;;;;;;5042825;27;87603;-58
2023/09/02 06:28:48;;;;;;;4.40;3.20;;;25.20;54.10;;;;;;5042834;28;89626;-58
2023/09/02 06:31:16;;;;;;;3.87;2.27;;;25.20;54.10;;;;;;5043184;28;87789;-58
2023/09/02 06:33:44;;;;;;;3.33;2.80;;;25.20;54.10;;;;;;5043325;28;87460;-58
2023/09/02 06:36:14;;;;;;;5.03;2.93;;;25.20;54.10;;;;;;5043234;28;87667;-58
2023/09/02 06:38:42;;;;;;;3.93;3.10;;;25.20;54.10;;;;;;5043266;27;89878;-58
2023/09/02 06:41:12;;;;;;;3.70;2.70;;;25.20;54.10;;;;;;5042587;28;89041;-58
2023/09/02 06:43:40;;;;;;;3.83;2.87;;;25.20;54.10;;;;;;5042225;28;87815;-58
2023/09/02 06:46:12;;;;;;;3.90;2.77;;;25.20;54.10;;;;;;5041995;27;87343;-58
2023/09/02 06:48:41;;;;;;;4.60;2.77;;;25.20;54.10;;;;;;5023048;28;89700;-58
2023/09/02 06:51:09;;;;;;;3.27;2.50;;;25.20;54.10;;;;;;5019132;28;89017;-58
2023/09/02 06:53:37;;;;;;;4.63;3.13;;;25.20;54.10;;;;;;5019126;28;87458;-59
2023/09/02 06:56:07;;;;;;;4.07;2.67;;;25.20;54.10;;;;;;5019087;28;87676;-58
2023/09/02 06:58:39;;;;;;;4.10;2.63;;;25.20;54.10;;;;;;5018555;28;88416;-58
2023/09/02 07:01:08;;;;;;;3.00;2.33;;;25.30;54.20;;;;;;5019093;28;87872;-58
2023/09/02 07:03:36;;;;;;;3.70;3.00;;;25.30;54.20;;;;;;5019815;28;88013;-58
2023/09/02 07:06:06;;;;;;;4.00;3.17;;;25.30;54.10;;;;;;5019764;28;87620;-58
2023/09/02 07:08:34;;;;;;;4.43;3.37;;;25.30;54.80;;;;;;5019449;28;88919;-58
2023/09/02 07:11:03;;;;;;;7.57;3.30;;;25.30;54.20;;;;;;5018783;28;88032;-58
2023/09/02 07:13:31;;;;;;;3.20;2.80;;;25.30;54.10;;;;;;5018885;28;87835;-58
2023/09/02 07:16:01;;;;;;;5.53;3.20;;;25.30;54.20;;;;;;5018766;28;87622;-58
2023/09/02 07:18:29;;;;;;;5.07;3.40;;;25.30;54.20;;;;;;5018379;28;88627;-58
2023/09/02 07:21:00;;;;;;;2.93;2.53;;;25.30;54.20;;;;;;5018737;28;89138;-58
2023/09/02 07:23:29;;;;;;;4.17;3.10;;;25.30;54.20;;;;;;5019122;28;88023;-57
2023/09/02 07:25:59;;;;;;;3.13;2.53;;;25.30;54.20;;;;;;5018866;28;87627;-58
2023/09/02 07:28:27;;;;;;;3.90;2.67;;;25.30;54.20;;;;;;5018909;28;88564;-58
2023/09/02 07:30:58;;;;;;;3.87;2.90;;;25.30;54.30;;;;;;5019081;28;88405;-58
2023/09/02 07:33:28;;;;;;;4.07;3.10;;;25.30;54.30;;;;;;5018701;28;87507;-58
2023/09/02 07:35:57;;;;;;;5.03;3.53;;;25.30;54.30;;;;;;5018680;28;87553;-58
2023/09/02 07:38:25;;;;;;;5.90;3.33;;;25.30;54.30;;;;;;5017966;28;88499;-58
2023/09/02 07:40:53;;;;;;;4.90;3.23;;;25.30;54.30;;;;;;5018476;28;89116;-58
2023/09/02 07:43:21;;;;;;;5.47;3.63;;;25.30;54.30;;;;;;5018180;28;87596;-58
2023/09/02 07:45:50;;;;;;;5.23;3.67;;;25.30;54.40;;;;;;5018552;28;87640;-58
2023/09/02 07:48:19;;;;;;;5.53;3.80;;;25.30;54.40;;;;;;5017389;28;88984;-58
2023/09/02 07:50:48;;;;;;;4.90;3.80;;;25.30;54.40;;;;;;5018395;28;88015;-58
2023/09/02 07:53:16;;;;;;;4.47;4.03;;;25.20;54.30;;;;;;5018621;28;87400;-58
2023/09/02 07:55:45;;;;;;;5.93;4.00;;;25.20;54.30;;;;;;5017777;28;87582;-58
2023/09/02 07:58:13;;;;;;;6.53;3.70;;;25.30;54.40;;;;;;5018603;28;89770;-58
2023/09/02 08:00:42;;;;;;;7.57;4.50;;;25.30;54.40;;;;;;5018448;28;88051;-58
2023/09/02 08:03:11;;;;;;;4.40;3.50;;;25.30;54.30;;;;;;5018479;28;87627;-58
2023/09/02 08:05:40;;;;;;;5.80;3.87;;;25.30;54.30;;;;;;5018350;28;88193;-58
2023/09/02 08:08:13;;;;;;;6.63;4.73;;;25.30;54.40;;;;;;5029873;28;88601;-58
2023/09/02 08:10:42;;;;;;;7.93;5.13;;;25.30;54.30;;;;;;5039138;27;87442;-58
2023/09/02 08:13:10;;;;;;;6.80;4.20;;;25.30;54.30;;;;;;5041767;27;87572;-58
2023/09/02 08:15:38;;;;;;;4.93;3.80;;;25.30;54.30;;;;;;5042849;27;88490;-58
2023/09/02 08:18:07;;;;;;;4.73;3.87;;;25.30;54.30;;;;;;5042340;27;88719;-58
2023/09/02 08:20:36;;;;;;;7.17;3.80;;;25.30;54.30;;;;;;5042343;28;89033;-58
2023/09/02 08:23:04;;;;;;;6.27;4.33;;;25.30;54.30;;;;;;5042226;27;87491;-58
2023/09/02 08:25:34;;;;;;;7.63;4.80;;;25.30;54.40;;;;;;5041519;27;87856;-58
2023/09/02 08:28:02;;;;;;;5.23;3.63;;;25.30;54.40;;;;;;5041973;28;89522;-58
2023/09/02 08:30:30;;;;;;;6.33;4.07;;;25.30;54.40;;;;;;5041202;28;88011;-58
2023/09/02 08:32:58;;;;;;;8.57;4.37;;;25.30;54.40;;;;;;5041847;28;87529;-58
2023/09/02 08:35:26;;;;;;;6.27;4.50;;;25.30;54.50;;;;;;5041297;28;87795;-58
2023/09/02 08:37:54;;;;;;;7.03;4.70;;;25.30;54.50;;;;;;5041347;28;88506;-58
2023/09/02 08:40:23;;;;;;;9.67;4.70;;;25.30;54.60;;;;;;5040848;28;88701;-58
2023/09/02 08:42:52;;;;;;;5.63;4.23;;;25.20;54.60;;;;;;5041499;28;87813;-58
2023/09/02 08:45:22;;;;;;;7.73;4.47;;;25.30;54.60;;;;;;5041384;27;88719;-58
2023/09/02 08:47:52;;;;;;;5.63;4.47;;;25.20;54.60;;;;;;5040945;28;89415;-58
2023/09/02 08:50:21;;;;;;;4.80;3.73;;;25.30;54.70;;;;;;5040500;28;87870;-58
2023/09/02 08:52:51;;;;;;;10.20;4.40;;;25.30;54.70;;;;;;5041433;27;87480;-58
2023/09/02 08:55:19;;;;;;;4.90;3.57;;;25.30;54.70;;;;;;5041361;28;87664;-58
2023/09/02 08:57:47;;;;;;;5.73;3.60;;;25.30;54.70;;;;;;5041377;28;89843;-58
2023/09/02 09:00:17;;;;;;;6.80;4.17;;;25.30;54.70;;;;;;5040838;28;89169;-58
2023/09/02 09:02:45;;;;;;;7.87;4.53;;;25.30;54.70;;;;;;5040602;28;87865;-58
2023/09/02 09:05:13;;;;;;;6.67;4.00;;;25.30;54.70;;;;;;5041211;27;87774;-58
2023/09/02 09:07:41;;;;;;;6.33;4.00;;;25.30;54.70;;;;;;5040393;27;88534;-59
2023/09/02 09:10:11;;;;;;;6.13;4.07;;;25.30;54.70;;;;;;5039296;28;89160;-58
2023/09/02 09:12:39;;;;;;;5.90;3.80;;;25.30;54.70;;;;;;5037885;28;88186;-58
2023/09/02 09:15:08;;;;;;;9.13;4.63;;;25.30;54.70;;;;;;5040781;28;87443;-58
2023/09/02 09:17:38;;;;;;;5.87;4.33;;;25.30;54.70;;;;;;5040273;28;87547;-58
2023/09/02 09:20:08;;;;;;;7.57;4.43;;;25.30;54.70;;;;;;5039940;27;88210;-59
2023/09/02 09:22:38;;;;;;;6.30;4.27;;;25.30;54.70;;;;;;5039994;27;87595;-58
2023/09/02 09:25:08;;;;;;;6.70;4.30;;;25.30;54.80;;;;;;5039653;27;87700;-64
2023/09/02 09:27:38;;;;;;;6.13;3.87;;;25.30;54.80;;;;;;5038138;28;89197;-58
2023/09/02 09:30:07;;;;;;;9.10;5.70;;;25.30;54.80;;;;;;5037107;28;89252;-58
2023/09/02 09:32:36;;;;;;;15.10;6.10;;;25.30;54.90;;;;;;5038299;27;87473;-58
2023/09/02 09:35:07;;;;;;;13.03;5.63;;;25.30;54.90;;;;;;5040703;28;87508;-58
2023/09/02 09:37:52;;;;;;;14.13;5.50;;;25.30;54.90;;;;;;5040796;27;88167;-57
2023/09/02 09:40:31;;;;;;;8.70;4.67;;;25.40;55.10;;;;;;5039632;28;88963;-58
2023/09/02 09:42:59;;;;;;;8.33;4.70;;;25.40;55.20;;;;;;5039800;27;87567;-58
2023/09/02 09:45:27;;;;;;;16.80;6.00;;;25.30;55.10;;;;;;5041024;27;88296;-57
2023/09/02 09:47:58;;;;;;;13.40;6.27;;;25.30;55.10;;;;;;5040480;27;88548;-58
2023/09/02 09:50:28;;;;;;;15.27;5.60;;;25.40;55.20;;;;;;5040831;27;88808;-58
2023/09/02 09:53:01;;;;;;;8.60;5.10;;;25.40;55.30;;;;;;5040448;27;87665;-58
2023/09/02 09:55:30;;;;;;;10.90;5.50;;;25.40;55.20;;;;;;5039975;27;87596;-58
2023/09/02 09:57:59;;;;;;;12.63;6.83;;;25.50;55.30;;;;;;5040194;27;88685;-58
2023/09/02 10:00:28;;;;;;;8.87;5.80;;;25.50;55.30;;;;;;5039853;28;87622;-58
2023/09/02 10:02:57;;;;;;;12.40;6.97;;;25.50;55.30;;;;;;5039986;28;87504;-60
2023/09/02 10:05:25;;;;;;;12.43;7.67;;;25.50;55.30;;;;;;5028121;27;88348;-60
2023/09/02 10:08:02;;;;;;;13.17;7.37;;;25.50;55.40;;;;;;5028383;27;90332;-60
2023/09/02 10:10:32;;;;;;;13.53;6.67;;;25.50;55.40;;;;;;5043466;27;88886;-61
2023/09/02 10:13:00;;;;;;;16.73;7.63;;;25.50;55.40;;;;;;5042448;27;88099;-61
2023/09/02 10:15:28;;;;;;;13.83;7.63;;;25.50;55.40;;;;;;5040889;27;87675;-60
2023/09/02 10:17:57;;;;;;;12.03;7.37;;;25.60;55.40;;;;;;5039547;27;88478;-62
2023/09/02 10:20:27;;;;;;;10.37;6.80;;;25.60;55.40;;;;;;5032051;27;90049;-63
2023/09/02 10:22:55;;;;;;;13.13;7.67;;;25.60;55.40;;;;;;5038870;27;87711;-62
2023/09/02 10:25:27;;;;;;;14.67;7.67;;;25.60;55.40;;;;;;5041429;27;87592;-62
2023/09/02 10:28:02;;;;;;;10.33;7.37;;;25.70;55.50;;;;;;5039776;27;88482;-63
2023/09/02 10:30:34;;;;;;;9.83;7.53;;;25.70;55.50;;;;;;5042338;27;89217;-62
2023/09/02 10:33:12;;;;;;;10.47;6.57;;;25.70;55.50;;;;;;5019657;28;87471;-62
2023/09/02 10:35:43;;;;;;;13.93;6.73;;;25.70;55.50;;;;;;5018928;28;88197;-62
2023/09/02 10:38:16;;;;;;;13.43;6.57;;;25.80;55.50;;;;;;5020356;28;89143;-63
2023/09/02 10:40:47;;;;;;;13.63;6.90;;;25.80;55.50;;;;;;5019713;28;88898;-64
2023/09/02 10:43:15;;;;;;;12.50;6.63;;;25.80;55.50;;;;;;5018994;28;87615;-62
2023/09/02 10:45:45;;;;;;;11.50;5.53;;;25.80;55.60;;;;;;5019315;28;87604;-62
2023/09/02 10:48:13;;;;;;;11.27;6.27;;;25.80;55.60;;;;;;5018815;28;89640;-62
2023/09/02 10:50:41;;;;;;;14.90;5.47;;;25.80;55.60;;;;;;5019353;28;89081;-62
2023/09/02 10:53:09;;;;;;;9.80;5.60;;;25.80;55.60;;;;;;5019316;28;87501;-62
2023/09/02 10:56:03;;;;;;;9.77;6.57;;;25.80;55.70;;;;;;5018323;28;87434;-62
2023/09/02 10:58:46;;;;;;;12.47;6.27;;;25.80;55.80;;;;;;5018852;28;88682;-63
2023/09/02 11:01:15;;;;;;;9.20;5.20;;;25.80;55.80;;;;;;5019262;28;89194;-63
2023/09/02 11:03:44;;;;;;;10.23;5.70;;;25.80;55.90;;;;;;5018881;28;88026;-58
2023/09/02 11:06:18;;;;;;;13.83;5.90;;;25.80;55.90;;;;;;5019111;28;87706;-59
2023/09/02 11:08:48;;;;;;;13.07;6.20;;;25.80;56.00;;;;;;5018913;28;88652;-60
2023/09/02 11:11:18;;;;;;;20.17;7.50;;;25.80;56.00;;;;;;5017970;28;88113;-60
2023/09/02 11:14:23;;;;;;;12.57;6.17;;;25.80;56.00;;;;;;5019323;28;87517;-59
2023/09/02 11:17:26;;;;;;;14.03;5.77;;;25.90;56.10;;;;;;5019734;28;87612;-60
2023/09/02 11:19:55;;;;;;;13.13;5.50;;;25.90;56.00;;;;;;5017950;28;88525;-60
2023/09/02 11:22:55;;;;;;;11.67;6.10;;;25.90;56.00;;;;;;5018209;28;87561;-60
2023/09/02 11:25:30;;;;;;;9.73;5.90;;;25.90;56.00;;;;;;4956617;28;87520;-60
2023/09/02 11:28:00;;;;;;;14.87;6.63;;;25.90;56.00;;;;;;5008594;28;87634;-59
2023/09/02 11:30:30;;;;;;;15.80;5.80;;;25.90;56.00;;;;;;5018702;28;89748;-60
2023/09/02 11:32:58;;;;;;;13.10;6.43;;;26.00;56.10;;;;;;5017605;28;88040;-59
2023/09/02 11:35:28;;;;;;;16.50;5.93;;;26.00;56.10;;;;;;5019046;28;87937;-60
2023/09/02 11:37:56;;;;;;;9.17;5.33;;;26.00;56.10;;;;;;5019036;28;87445;-60
2023/09/02 11:40:26;;;;;;;8.90;5.73;;;26.00;56.10;;;;;;5018467;28;88305;-60
2023/09/02 11:42:55;;;;;;;11.93;5.90;;;26.00;56.00;;;;;;5025925;28;89068;-60
2023/09/02 11:45:25;;;;;;;12.03;5.60;;;26.00;56.00;;;;;;5037551;27;87456;-60
2023/09/02 11:47:53;;;;;;;9.57;5.50;;;26.00;56.00;;;;;;5037855;28;87773;-60
2023/09/02 11:50:25;;;;;;;13.00;5.93;;;26.00;56.00;;;;;;5037996;27;89726;-60
2023/09/02 11:52:54;;;;;;;13.23;5.60;;;26.00;56.00;;;;;;5037910;28;87683;-60
2023/09/02 11:55:22;;;;;;;12.03;5.93;;;26.10;56.00;;;;;;5038906;28;87393;-60
2023/09/02 11:57:53;;;;;;;7.93;5.33;;;26.00;55.80;;;;;;5039167;27;87585;-60
2023/09/02 12:00:22;;;;;;;9.93;4.90;;;26.10;55.80;;;;;;5038612;28;89290;-60
2023/09/02 12:02:58;;;;;;;7.90;4.93;;;26.10;55.80;;;;;;5038094;28;88228;-59
2023/09/02 12:05:30;;;;;;;10.30;5.17;;;26.10;55.80;;;;;;5038823;27;87849;-60
2023/09/02 12:07:58;;;;;;;13.37;6.53;;;26.10;55.80;;;;;;5038151;28;88559;-59
2023/09/02 12:10:27;;;;;;;12.97;6.67;;;26.10;55.70;;;;;;5038342;28;89834;-59
2023/09/02 12:12:55;;;;;;;12.10;6.03;;;26.10;55.70;;;;;;5037689;28;88333;-60
2023/09/02 12:15:32;;;;;;;9.87;6.33;;;26.10;55.70;;;;;;5038322;27;87438;-60
2023/09/02 12:18:04;;;;;;;10.63;6.50;;;26.20;55.70;;;;;;5038771;27;87537;-60
2023/09/02 12:20:35;;;;;;;12.23;5.80;;;26.10;55.70;;;;;;5038868;28;88336;-60
2023/09/02 12:23:04;;;;;;;13.27;6.40;;;26.20;55.70;;;;;;5038081;28;87830;-60
2023/09/02 12:25:33;;;;;;;9.03;6.30;;;26.20;55.60;;;;;;5038878;27;87469;-60
2023/09/02 12:28:11;;;;;;;11.53;5.87;;;26.20;55.70;;;;;;5038138;27;87713;-60
2023/09/02 12:30:40;;;;;;;13.63;6.70;;;26.20;55.60;;;;;;5037967;28;89733;-59
2023/09/02 12:33:12;;;;;;;10.17;6.20;;;26.20;55.50;;;;;;5037350;28;87582;-59
2023/09/02 12:35:51;;;;;;;15.63;6.83;;;26.20;55.50;;;;;;5037947;27;87828;-60
2023/09/02 12:38:21;;;;;;;14.33;7.27;;;26.20;55.50;;;;;;5037929;28;87500;-60
2023/09/02 12:40:53;;;;;;;12.60;5.90;;;26.30;55.60;;;;;;5037934;28;89651;-59
2023/09/02 12:43:26;;;;;;;10.57;6.57;;;26.30;55.50;;;;;;5038018;28;89100;-59
2023/09/02 12:46:01;;;;;;;12.07;7.90;;;26.30;55.50;;;;;;5037914;28;87609;-59
2023/09/02 12:48:39;;;;;;;12.23;7.30;;;26.30;55.50;;;;;;5038182;27;87592;-60
2023/09/02 12:51:07;;;;;;;12.53;7.10;;;26.30;55.50;;;;;;5037191;28;89729;-59
2023/09/02 12:53:41;;;;;;;11.93;7.60;;;26.30;55.40;;;;;;5037652;28;88290;-60
2023/09/02 12:56:10;;;;;;;9.87;6.33;;;26.30;55.40;;;;;;5037574;27;87523;-59